Templeville, Maryland
Current Conditions -  °F | °C
As of 6:58 PM on Friday 24 Oct 2014 (Local Time) from KDOV Reporting Station
Clear Clear  
Wind Chill: 61°   Ceiling: Unl
Heat Index: 61°   Visibility: 10mi
Dew Point: 44°   Wind: 5mph
Humidity: 54%   Direction: 250°WSW
Pressure: 29.85"   Gusts: NA
Location:  39.14°N, 75.77°W
Report Text: KDOV 242258Z AUTO 25004KT 10SM CLR 16/07 A2985 RMK AO2 SLP111 T01630069
Loading
Personal Weather Stations






























Interactive Weather Map
Tropical Storm Tracking
New forecast layout! Learn more

10-Day Weather Forecast

Advertisements
Track Severe Weather on mobile